Time;durP1;ratioP1;P1;durP2;ratioP2;P2;SDS_P1;SDS_P2;PMS_P1;PMS_P2;Temp;Humidity;BMP_temperature;BMP_pressure;BME280_temperature;BME280_humidity;BME280_pressure;Samples;Min_cycle;Max_cycle;Signal;HPM_P1;HPM_P2
2023/01/18 00:00:05;;;;;;;61.00;29.13;;;1.70;99.90;;;;;;5045114;28;20033;-72
2023/01/18 00:02:30;;;;;;;50.13;28.25;;;1.70;99.90;;;;;;5048331;28;20514;-72
2023/01/18 00:04:56;;;;;;;61.17;32.60;;;1.60;99.90;;;;;;5044139;28;20053;-72
2023/01/18 00:07:22;;;;;;;53.83;31.30;;;1.70;99.90;;;;;;5046873;28;20040;-73
2023/01/18 00:09:47;;;;;;;52.90;29.77;;;1.60;99.90;;;;;;5041287;28;20036;-72
2023/01/18 00:12:13;;;;;;;55.33;28.55;;;1.60;99.90;;;;;;5041343;28;20103;-72
2023/01/18 00:14:38;;;;;;;51.20;27.60;;;1.60;99.90;;;;;;5041833;28;20033;-72
2023/01/18 00:17:04;;;;;;;57.95;29.63;;;1.60;99.90;;;;;;5040939;28;20451;-73
2023/01/18 00:19:30;;;;;;;54.85;31.13;;;1.50;99.90;;;;;;5043958;28;20095;-73
2023/01/18 00:21:56;;;;;;;57.28;29.70;;;1.40;99.90;;;;;;5041483;28;20528;-72
2023/01/18 00:24:22;;;;;;;52.35;31.92;;;1.40;99.90;;;;;;5044375;28;20461;-72
2023/01/18 00:26:48;;;;;;;57.92;29.15;;;1.30;99.90;;;;;;5045993;28;20071;-72
2023/01/18 00:29:14;;;;;;;52.72;28.55;;;1.40;99.90;;;;;;5044191;28;20013;-72
2023/01/18 00:31:40;;;;;;;48.97;27.17;;;1.40;99.90;;;;;;5048911;28;20037;-72
2023/01/18 00:34:06;;;;;;;54.47;26.13;;;1.50;99.90;;;;;;5039917;28;20098;-73
2023/01/18 00:36:32;;;;;;;48.38;26.30;;;1.50;99.90;;;;;;5045365;28;20419;-72
2023/01/18 00:38:59;;;;;;;48.05;28.15;;;1.50;99.90;;;;;;5046463;28;20117;-72
2023/01/18 00:41:25;;;;;;;50.33;24.98;;;1.60;99.90;;;;;;5044845;28;20029;-72
2023/01/18 00:43:51;;;;;;;46.97;24.17;;;1.60;99.90;;;;;;5042762;28;20033;-72
2023/01/18 00:46:27;;;;;;;47.75;23.35;;;1.60;99.90;;;;;;5042548;28;20013;-73
2023/01/18 00:48:54;;;;;;;50.72;23.73;;;1.60;99.90;;;;;;5045364;28;20404;-72
2023/01/18 00:51:22;;;;;;;44.95;23.13;;;1.50;99.90;;;;;;5043445;28;20021;-72
2023/01/18 00:53:48;;;;;;;44.13;24.33;;;1.50;99.90;;;;;;5044057;28;20514;-73
2023/01/18 00:56:18;;;;;;;46.92;23.95;;;1.50;99.90;;;;;;5043541;28;20082;-73
2023/01/18 00:58:44;;;;;;;42.88;23.60;;;1.50;99.90;;;;;;5043178;28;20040;-73
2023/01/18 01:01:10;;;;;;;46.35;23.80;;;1.50;99.90;;;;;;5044474;28;20033;-73
2023/01/18 01:06:44;;;;;;;48.53;23.73;;;1.50;99.90;;;;;;5040690;28;20168;-73
2023/01/18 01:09:22;;;;;;;44.30;21.63;;;1.50;99.90;;;;;;5043564;28;20043;-72
2023/01/18 01:28:22;;;;;;;41.88;20.83;;;1.40;99.90;;;;;;5042711;28;20047;-73
2023/01/18 01:30:48;;;;;;;38.45;20.45;;;1.40;99.90;;;;;;5044335;28;20025;-72
2023/01/18 01:33:16;;;;;;;35.00;20.35;;;1.40;99.90;;;;;;5042070;28;20056;-72
2023/01/18 01:35:41;;;;;;;38.90;19.52;;;1.40;99.90;;;;;;5039377;28;20068;-73
2023/01/18 01:38:07;;;;;;;34.47;17.17;;;1.40;99.90;;;;;;5046861;28;20048;-73
2023/01/18 01:40:33;;;;;;;39.22;18.17;;;1.30;99.90;;;;;;5045959;28;20029;-73
2023/01/18 01:42:59;;;;;;;37.25;18.73;;;1.30;99.90;;;;;;5042440;28;20028;-72
2023/01/18 01:45:28;;;;;;;39.92;19.00;;;1.30;99.90;;;;;;5043546;28;20021;-72
2023/01/18 01:47:56;;;;;;;42.38;17.42;;;1.30;99.90;;;;;;5042221;28;20021;-73
2023/01/18 01:50:33;;;;;;;37.60;19.00;;;1.30;99.90;;;;;;5043049;28;20079;-72
2023/01/18 01:52:59;;;;;;;40.88;20.10;;;1.20;99.90;;;;;;5044436;28;20041;-72
2023/01/18 01:55:32;;;;;;;38.33;19.33;;;1.20;99.90;;;;;;5044557;28;20036;-73
2023/01/18 01:58:02;;;;;;;36.88;20.20;;;1.20;99.90;;;;;;5047245;28;20021;-72
2023/01/18 02:00:28;;;;;;;41.50;20.20;;;1.20;99.90;;;;;;5045557;28;20032;-73
2023/01/18 02:03:00;;;;;;;36.30;20.30;;;1.30;99.90;;;;;;5044500;28;20071;-72
2023/01/18 02:05:28;;;;;;;47.05;19.80;;;1.20;99.90;;;;;;5048057;28;20035;-72
2023/01/18 02:07:58;;;;;;;33.20;17.63;;;1.20;99.90;;;;;;5047908;28;20025;-72
2023/01/18 02:10:23;;;;;;;36.45;19.63;;;1.10;99.90;;;;;;5045316;28;20025;-72
2023/01/18 02:12:50;;;;;;;35.53;17.98;;;1.10;99.90;;;;;;5049084;28;20028;-72
2023/01/18 02:15:16;;;;;;;32.90;18.45;;;1.10;99.90;;;;;;5045316;28;20427;-73
2023/01/18 02:18:26;;;;;;;30.48;17.70;;;1.00;99.90;;;;;;5046452;28;20027;-72
2023/01/18 02:21:13;;;;;;;27.52;16.17;;;0.90;99.90;;;;;;5048948;28;20175;-72
2023/01/18 02:23:44;;;;;;;35.08;17.33;;;0.80;99.90;;;;;;5047677;28;20025;-72
2023/01/18 02:26:27;;;;;;;29.42;16.10;;;0.80;99.90;;;;;;5047263;28;20028;-72
2023/01/18 02:29:06;;;;;;;;;;;0.80;99.90;;;;;;5045440;28;20128;-72
2023/01/18 02:31:44;;;;;;;27.38;15.05;;;0.80;99.90;;;;;;5047740;28;19967;-72
2023/01/18 02:34:43;;;;;;;30.40;16.50;;;0.90;99.90;;;;;;5041708;28;20082;-72
2023/01/18 02:37:46;;;;;;;30.60;16.42;;;0.90;99.90;;;;;;5046693;28;20489;-72
2023/01/18 02:40:38;;;;;;;36.35;15.63;;;0.90;99.90;;;;;;5048308;28;20037;-72
2023/01/18 02:48:47;;;;;;;29.58;15.30;;;0.70;99.90;;;;;;5042848;28;20381;-72
2023/01/18 02:51:13;;;;;;;26.35;14.88;;;0.60;99.90;;;;;;5046327;28;20018;-72
2023/01/18 02:53:45;;;;;;;30.38;15.38;;;0.60;99.90;;;;;;5049100;28;20021;-72
2023/01/18 02:56:23;;;;;;;;;;;0.60;99.90;;;;;;5049820;28;20029;-72
2023/01/18 02:59:14;;;;;;;29.60;14.35;;;0.60;99.90;;;;;;5047558;28;19909;-72
2023/01/18 03:02:08;;;;;;;26.42;14.13;;;0.60;99.90;;;;;;5041597;28;20036;-72
2023/01/18 03:04:42;;;;;;;28.77;13.98;;;0.60;99.90;;;;;;5049732;28;20456;-73
2023/01/18 03:07:15;;;;;;;29.13;14.60;;;0.70;99.90;;;;;;5046819;28;20036;-72
2023/01/18 03:09:42;;;;;;;28.17;14.13;;;0.70;99.90;;;;;;5046897;28;20017;-72
2023/01/18 03:12:45;;;;;;;29.55;15.35;;;0.60;99.90;;;;;;5047439;28;20070;-72
2023/01/18 03:15:11;;;;;;;;;;;0.50;99.90;;;;;;5043520;28;20066;-72
2023/01/18 03:17:56;;;;;;;28.05;14.60;;;0.50;99.90;;;;;;5042314;28;19967;-72
2023/01/18 03:20:26;;;;;;;28.75;14.68;;;0.50;99.90;;;;;;5047727;28;20056;-72
2023/01/18 03:26:15;;;;;;;29.42;16.23;;;0.50;99.90;;;;;;5049038;28;20135;-72
2023/01/18 03:35:06;;;;;;;36.40;15.73;;;0.50;99.90;;;;;;5044590;28;20068;-73
2023/01/18 03:37:36;;;;;;;27.20;15.00;;;0.50;99.90;;;;;;5053295;28;20373;-72
2023/01/18 03:40:11;;;;;;;32.92;15.63;;;0.60;99.90;;;;;;5046877;28;20087;-72
2023/01/18 03:42:47;;;;;;;41.15;15.93;;;0.50;99.90;;;;;;5050949;28;20021;-72
2023/01/18 03:45:22;;;;;;;32.75;16.23;;;0.50;99.90;;;;;;5047836;28;20036;-72
2023/01/18 03:47:49;;;;;;;26.52;15.60;;;0.50;99.90;;;;;;5048271;28;20017;-73
2023/01/18 03:50:16;;;;;;;30.38;17.88;;;0.60;99.90;;;;;;5047188;28;20389;-73
2023/01/18 03:52:46;;;;;;;33.90;15.10;;;0.50;99.90;;;;;;5045099;28;20037;-73
2023/01/18 03:55:41;;;;;;;45.08;17.40;;;0.60;99.90;;;;;;5054111;28;20547;-72
2023/01/18 03:58:13;;;;;;;30.50;16.92;;;0.50;99.90;;;;;;5053461;28;20091;-72
2023/01/18 04:00:39;;;;;;;32.78;16.55;;;0.50;99.90;;;;;;5043700;28;20037;-72
2023/01/18 04:03:07;;;;;;;40.28;18.20;;;0.50;99.90;;;;;;5045096;28;20033;-72
2023/01/18 04:05:33;;;;;;;32.28;17.02;;;0.50;99.90;;;;;;5051723;28;20028;-72
2023/01/18 04:07:59;;;;;;;37.05;17.77;;;0.60;99.90;;;;;;5049034;28;20027;-73
2023/01/18 04:10:25;;;;;;;32.20;18.02;;;0.60;99.90;;;;;;5048954;28;20017;-72
2023/01/18 04:12:51;;;;;;;34.80;17.88;;;0.50;99.90;;;;;;5049476;28;20098;-72
2023/01/18 04:15:17;;;;;;;32.38;17.67;;;0.50;99.90;;;;;;5045380;28;20033;-72
2023/01/18 04:17:42;;;;;;;31.73;17.45;;;0.50;99.90;;;;;;5051281;28;20017;-73
2023/01/18 04:20:09;;;;;;;39.28;18.80;;;0.50;99.90;;;;;;5048675;28;20675;-72
2023/01/18 04:22:34;;;;;;;33.83;18.33;;;0.60;99.90;;;;;;5050259;28;20025;-72
2023/01/18 04:25:00;;;;;;;37.15;19.58;;;0.60;99.90;;;;;;5044008;28;20048;-72
2023/01/18 04:27:25;;;;;;;38.22;18.80;;;0.60;99.90;;;;;;5056715;28;20017;-72
2023/01/18 04:29:51;;;;;;;30.95;17.63;;;0.60;99.90;;;;;;5053811;28;20025;-72
2023/01/18 04:32:17;;;;;;;30.42;17.35;;;0.70;99.90;;;;;;5045322;28;20021;-72
2023/01/18 04:34:42;;;;;;;40.58;18.60;;;0.60;99.90;;;;;;5060547;28;20389;-73
2023/01/18 04:37:08;;;;;;;39.78;17.48;;;0.60;99.90;;;;;;5049276;28;20104;-72
2023/01/18 04:39:34;;;;;;;42.80;19.13;;;0.50;99.90;;;;;;5057434;28;20028;-73
2023/01/18 04:41:59;;;;;;;40.28;18.13;;;0.40;99.90;;;;;;5053595;28;20028;-72
2023/01/18 04:44:25;;;;;;;33.58;18.27;;;0.40;99.90;;;;;;5050685;28;20060;-72
2023/01/18 04:46:51;;;;;;;36.55;17.67;;;0.30;99.90;;;;;;5058233;28;20368;-72
2023/01/18 04:49:17;;;;;;;38.85;18.10;;;0.30;99.90;;;;;;5049678;28;20632;-73
2023/01/18 04:51:44;;;;;;;31.20;16.90;;;0.30;99.90;;;;;;5058815;28;20047;-73
2023/01/18 04:54:10;;;;;;;39.90;18.67;;;0.40;99.90;;;;;;5057419;28;20012;-73
2023/01/18 04:56:36;;;;;;;31.58;17.80;;;0.30;99.90;;;;;;5048349;28;20330;-73
2023/01/18 04:59:02;;;;;;;37.28;17.75;;;0.30;99.90;;;;;;5048152;28;20017;-72
2023/01/18 05:01:28;;;;;;;37.92;18.48;;;0.30;99.90;;;;;;5056138;28;20397;-73
2023/01/18 05:03:54;;;;;;;32.75;17.85;;;0.20;99.90;;;;;;5050417;28;20032;-72
2023/01/18 05:06:20;;;;;;;41.08;17.10;;;0.20;99.90;;;;;;5058715;28;20021;-72
2023/01/18 05:08:46;;;;;;;33.75;17.10;;;0.10;99.90;;;;;;5055999;28;20373;-72
2023/01/18 05:11:14;;;;;;;32.95;17.23;;;0.20;99.90;;;;;;5048599;28;20040;-73
2023/01/18 05:13:40;;;;;;;30.95;17.35;;;0.20;99.90;;;;;;5056984;28;20405;-73
2023/01/18 05:16:11;;;;;;;31.95;17.25;;;0.30;99.90;;;;;;5052160;28;20021;-73
2023/01/18 05:18:36;;;;;;;34.88;18.55;;;0.30;99.90;;;;;;5053031;28;20032;-73
2023/01/18 05:21:02;;;;;;;33.35;16.70;;;0.30;99.90;;;;;;5053621;28;20029;-73
2023/01/18 05:23:28;;;;;;;34.90;19.38;;;0.20;99.90;;;;;;5050533;28;20025;-73
2023/01/18 05:25:54;;;;;;;33.97;18.63;;;0.30;99.90;;;;;;5054389;28;20021;-72
2023/01/18 05:28:21;;;;;;;38.58;19.58;;;0.30;99.90;;;;;;5049027;28;20071;-73
2023/01/18 05:30:48;;;;;;;38.47;19.08;;;0.20;99.90;;;;;;5062886;28;20017;-72
2023/01/18 05:33:15;;;;;;;36.90;18.15;;;0.30;99.90;;;;;;5049123;28;20033;-73
2023/01/18 05:35:52;;;;;;;36.53;19.10;;;0.30;99.90;;;;;;5059778;28;20025;-74
2023/01/18 05:38:19;;;;;;;36.33;19.48;;;0.20;99.90;;;;;;5052776;28;20025;-72
2023/01/18 05:40:47;;;;;;;39.47;18.67;;;0.20;99.90;;;;;;5055014;28;20060;-73
2023/01/18 05:43:13;;;;;;;36.00;19.40;;;0.20;99.90;;;;;;5046707;28;20058;-73
2023/01/18 05:45:41;;;;;;;32.40;19.30;;;0.20;99.90;;;;;;5060305;28;20035;-72
2023/01/18 05:48:07;;;;;;;40.60;19.98;;;0.20;99.90;;;;;;5060270;28;20016;-72
2023/01/18 05:50:33;;;;;;;36.67;19.35;;;0.20;99.90;;;;;;5057266;28;20040;-72
2023/01/18 05:52:59;;;;;;;36.15;19.42;;;0.10;99.90;;;;;;5055733;28;20021;-72
2023/01/18 05:55:28;;;;;;;34.55;18.63;;;0.10;99.90;;;;;;5047363;28;20520;-72
2023/01/18 05:57:53;;;;;;;37.58;18.83;;;0.10;99.90;;;;;;5056814;28;20100;-72
2023/01/18 06:00:20;;;;;;;37.85;19.25;;;0.20;99.90;;;;;;5059341;28;20476;-72
2023/01/18 06:02:45;;;;;;;34.17;19.42;;;0.20;99.90;;;;;;5057546;28;20032;-72
2023/01/18 06:05:11;;;;;;;38.95;20.80;;;0.20;99.90;;;;;;5062267;28;20477;-72
2023/01/18 06:07:37;;;;;;;43.30;22.08;;;0.20;99.90;;;;;;5053928;28;20112;-72
2023/01/18 06:10:03;;;;;;;36.85;19.83;;;0.20;99.90;;;;;;5061258;28;20116;-72
2023/01/18 06:12:29;;;;;;;40.58;21.80;;;0.20;99.90;;;;;;5050263;28;20029;-72
2023/01/18 06:14:55;;;;;;;41.55;21.58;;;0.20;99.90;;;;;;5052931;28;20385;-72
2023/01/18 06:17:21;;;;;;;38.53;20.45;;;0.20;99.90;;;;;;5051301;28;20125;-72
2023/01/18 06:19:46;;;;;;;38.25;22.25;;;0.30;99.90;;;;;;5058652;28;20508;-72
2023/01/18 06:22:12;;;;;;;43.58;22.95;;;0.40;99.90;;;;;;5070360;28;20028;-72
2023/01/18 06:24:38;;;;;;;42.00;23.13;;;0.40;99.90;;;;;;5050766;28;20026;-72
2023/01/18 06:27:03;;;;;;;40.30;22.13;;;0.40;99.90;;;;;;5050525;28;20047;-73
2023/01/18 06:29:29;;;;;;;43.17;23.95;;;0.40;99.90;;;;;;5063939;28;20016;-72
2023/01/18 06:31:55;;;;;;;39.65;20.63;;;0.30;99.90;;;;;;5046485;28;20037;-72
2023/01/18 06:34:21;;;;;;;36.42;20.25;;;0.30;99.90;;;;;;5061372;28;20492;-72
2023/01/18 06:36:46;;;;;;;39.20;19.50;;;0.30;99.90;;;;;;5052062;28;20024;-72
2023/01/18 06:39:12;;;;;;;42.90;21.25;;;0.30;99.90;;;;;;5058605;28;20021;-72
2023/01/18 06:41:38;;;;;;;37.58;20.60;;;0.30;99.90;;;;;;5066542;28;20185;-72
2023/01/18 06:44:03;;;;;;;39.83;21.95;;;0.30;99.90;;;;;;5053980;28;20017;-72
2023/01/18 06:46:29;;;;;;;34.60;20.45;;;0.30;99.90;;;;;;5052417;28;20025;-73
2023/01/18 06:48:55;;;;;;;43.42;22.58;;;0.40;99.90;;;;;;5058860;28;20025;-72
2023/01/18 06:51:20;;;;;;;38.83;21.02;;;0.30;99.90;;;;;;5053352;28;20028;-72
2023/01/18 06:53:47;;;;;;;40.03;21.55;;;0.30;99.90;;;;;;5056407;28;20055;-72
2023/01/18 06:56:13;;;;;;;38.70;20.88;;;0.30;99.90;;;;;;5056070;28;20029;-72
2023/01/18 06:58:39;;;;;;;41.45;21.02;;;0.40;99.90;;;;;;5054218;28;20014;-72
2023/01/18 07:01:05;;;;;;;36.03;19.77;;;0.40;99.90;;;;;;5052602;28;20058;-72
2023/01/18 07:03:31;;;;;;;36.15;20.60;;;0.40;99.90;;;;;;5052736;28;20489;-72
2023/01/18 07:05:59;;;;;;;36.25;19.48;;;0.30;99.90;;;;;;5055744;28;20059;-73
2023/01/18 07:08:26;;;;;;;35.03;19.58;;;0.30;99.90;;;;;;5055177;28;20018;-73
2023/01/18 07:10:53;;;;;;;34.20;18.80;;;0.20;99.90;;;;;;5052240;28;20013;-73
2023/01/18 07:13:19;;;;;;;36.60;19.05;;;0.30;99.90;;;;;;5060498;28;20134;-73
2023/01/18 07:15:45;;;;;;;42.17;20.92;;;0.30;99.90;;;;;;5056810;28;20078;-74
2023/01/18 07:18:11;;;;;;;36.40;18.50;;;0.20;99.90;;;;;;5055722;28;20431;-74
2023/01/18 07:20:36;;;;;;;36.22;20.17;;;0.30;99.90;;;;;;5060706;28;20048;-72
2023/01/18 07:23:03;;;;;;;35.35;20.55;;;0.30;99.90;;;;;;5049028;28;20177;-72
2023/01/18 07:25:29;;;;;;;40.78;20.05;;;0.20;99.90;;;;;;5060178;28;20029;-72
2023/01/18 07:27:58;;;;;;;38.05;20.98;;;0.20;99.90;;;;;;5045518;28;20035;-72
2023/01/18 07:30:24;;;;;;;39.92;23.17;;;0.20;99.90;;;;;;5052759;28;20064;-72
2023/01/18 07:32:51;;;;;;;47.95;22.58;;;0.20;99.90;;;;;;5051020;28;20110;-72
2023/01/18 07:35:20;;;;;;;49.65;21.80;;;0.20;99.90;;;;;;5049630;28;20036;-72
2023/01/18 07:37:52;;;;;;;41.08;20.20;;;0.20;99.90;;;;;;5056428;28;20024;-72
2023/01/18 07:40:20;;;;;;;39.63;20.15;;;0.20;99.90;;;;;;5051525;28;20065;-73
2023/01/18 07:42:46;;;;;;;40.15;20.52;;;0.20;99.90;;;;;;5053235;28;20480;-73
2023/01/18 07:45:12;;;;;;;36.72;19.65;;;0.20;99.90;;;;;;5057861;28;20464;-72
2023/01/18 07:47:44;;;;;;;35.80;20.95;;;0.20;99.90;;;;;;5054896;28;20044;-72
2023/01/18 07:50:10;;;;;;;36.42;19.48;;;0.10;99.90;;;;;;5046905;28;20021;-72
2023/01/18 07:52:36;;;;;;;34.25;20.55;;;0.20;99.90;;;;;;5050326;28;20020;-73
2023/01/18 07:55:02;;;;;;;39.60;21.45;;;0.20;99.90;;;;;;5051146;28;20021;-73
2023/01/18 07:57:27;;;;;;;34.05;20.17;;;0.10;99.90;;;;;;5045402;28;20024;-72
2023/01/18 07:59:53;;;;;;;37.00;19.80;;;0.20;99.90;;;;;;5048954;28;20399;-72
2023/01/18 08:02:18;;;;;;;44.95;21.15;;;0.10;99.90;;;;;;5052918;28;20021;-72
2023/01/18 08:04:48;;;;;;;40.75;21.15;;;0.10;99.90;;;;;;5051614;28;20108;-72
2023/01/18 08:07:15;;;;;;;44.40;22.60;;;0.10;99.90;;;;;;5048068;28;20067;-72
2023/01/18 08:09:40;;;;;;;42.72;23.90;;;0.10;99.90;;;;;;5047486;28;20437;-73
2023/01/18 08:12:06;;;;;;;42.15;22.40;;;0.10;99.90;;;;;;5051757;28;20024;-72
2023/01/18 08:14:32;;;;;;;42.72;21.88;;;0.20;99.90;;;;;;5046979;28;20082;-72
2023/01/18 08:16:58;;;;;;;43.42;23.63;;;0.10;99.90;;;;;;5050151;28;20036;-73
2023/01/18 08:19:24;;;;;;;39.72;22.83;;;0.10;99.90;;;;;;5046146;28;20028;-75
2023/01/18 08:21:49;;;;;;;44.15;22.27;;;0.20;99.90;;;;;;5042035;28;20513;-74
2023/01/18 08:24:15;;;;;;;42.13;21.58;;;0.20;99.90;;;;;;5047617;28;20538;-73
2023/01/18 08:26:40;;;;;;;43.50;24.27;;;0.20;99.90;;;;;;5048936;28;20061;-73
2023/01/18 08:29:06;;;;;;;42.60;24.17;;;0.20;99.90;;;;;;5015089;28;20037;-78
2023/01/18 08:31:32;;;;;;;39.63;23.60;;;0.20;99.90;;;;;;5037185;28;20137;-70
2023/01/18 08:33:57;;;;;;;45.35;24.38;;;0.30;99.90;;;;;;5037481;28;20056;-73
2023/01/18 08:36:24;;;;;;;39.58;22.27;;;0.20;99.90;;;;;;5036642;28;20123;-68
2023/01/18 08:38:52;;;;;;;43.47;21.63;;;0.30;99.90;;;;;;5037779;28;20025;-69
2023/01/18 08:41:19;;;;;;;36.78;19.70;;;0.30;99.90;;;;;;5034147;28;20045;-69
2023/01/18 08:43:49;;;;;;;43.33;21.42;;;0.30;99.90;;;;;;5036227;28;20018;-69
2023/01/18 08:46:15;;;;;;;43.03;21.25;;;0.30;99.90;;;;;;5037652;28;20503;-69
2023/01/18 08:48:42;;;;;;;42.95;22.45;;;0.30;99.90;;;;;;5036015;28;20079;-69
2023/01/18 08:51:08;;;;;;;43.70;21.17;;;0.30;99.90;;;;;;5035788;28;20021;-69
2023/01/18 08:53:34;;;;;;;45.20;22.48;;;0.30;99.90;;;;;;5036111;28;22435;-67
2023/01/18 08:56:04;;;;;;;40.40;21.48;;;0.20;99.90;;;;;;5036275;28;20026;-68
2023/01/18 08:58:30;;;;;;;42.53;21.90;;;0.30;99.90;;;;;;5034308;28;20039;-69
2023/01/18 09:00:56;;;;;;;38.67;22.25;;;0.30;99.90;;;;;;5038019;28;20108;-68
2023/01/18 09:03:22;;;;;;;44.38;23.38;;;0.40;99.90;;;;;;5035095;28;20100;-68
2023/01/18 09:05:48;;;;;;;42.72;23.33;;;0.50;99.90;;;;;;5035684;28;20482;-68
2023/01/18 09:08:14;;;;;;;42.05;23.00;;;0.40;99.90;;;;;;5033234;28;20029;-67
2023/01/18 09:10:39;;;;;;;44.97;24.48;;;0.50;99.90;;;;;;5033107;28;20393;-67
2023/01/18 09:13:05;;;;;;;45.25;24.38;;;0.60;99.90;;;;;;5030337;28;20392;-67
2023/01/18 09:15:31;;;;;;;41.13;23.27;;;0.60;99.90;;;;;;5030776;28;20029;-67
2023/01/18 09:17:57;;;;;;;44.03;25.70;;;0.60;99.90;;;;;;5032081;28;20025;-68
2023/01/18 09:20:24;;;;;;;43.30;25.50;;;0.60;99.90;;;;;;5035590;28;20474;-68
2023/01/18 09:22:50;;;;;;;47.72;24.27;;;0.60;99.90;;;;;;5034531;28;20124;-67
2023/01/18 09:25:17;;;;;;;46.17;23.60;;;0.70;99.90;;;;;;5035487;28;20144;-67
2023/01/18 09:27:45;;;;;;;42.47;23.33;;;0.70;99.90;;;;;;5033916;28;20415;-67
2023/01/18 09:30:11;;;;;;;46.05;23.95;;;0.80;99.90;;;;;;5033393;28;20021;-67
2023/01/18 09:32:36;;;;;;;41.45;23.98;;;0.70;99.90;;;;;;5036365;28;20034;-67
2023/01/18 09:35:03;;;;;;;38.90;23.85;;;0.70;99.90;;;;;;5036597;28;20037;-67
2023/01/18 09:37:28;;;;;;;44.20;23.73;;;0.80;99.90;;;;;;5033151;28;20021;-68
2023/01/18 09:39:54;;;;;;;45.67;23.83;;;0.80;99.90;;;;;;5032032;28;20115;-68
2023/01/18 09:42:23;;;;;;;42.50;24.08;;;0.90;99.90;;;;;;5032365;28;20045;-68
2023/01/18 09:44:52;;;;;;;38.95;22.70;;;1.00;99.90;;;;;;5033121;28;20025;-67
2023/01/18 09:47:30;;;;;;;41.20;24.05;;;1.00;99.90;;;;;;5034351;28;20067;-68
2023/01/18 09:50:25;;;;;;;38.00;21.58;;;1.10;99.90;;;;;;5034686;28;20420;-68
2023/01/18 09:52:59;;;;;;;39.42;21.30;;;1.00;99.90;;;;;;5034622;28;20095;-68
2023/01/18 09:55:37;;;;;;;37.80;21.35;;;1.10;99.90;;;;;;5023490;28;20059;-69
2023/01/18 09:58:33;;;;;;;41.30;22.02;;;1.10;99.90;;;;;;5036692;28;20541;-68
2023/01/18 10:01:10;;;;;;;38.42;21.20;;;1.20;99.90;;;;;;5026613;28;20048;-68
2023/01/18 10:03:49;;;;;;;39.95;21.25;;;1.30;99.90;;;;;;5034994;28;20457;-68
2023/01/18 10:06:25;;;;;;;40.80;20.17;;;1.40;99.90;;;;;;5032449;28;20041;-68
2023/01/18 10:08:52;;;;;;;42.92;20.73;;;1.40;99.90;;;;;;5033476;28;20543;-68
2023/01/18 10:11:35;;;;;;;38.45;20.30;;;1.50;99.90;;;;;;5033264;28;20049;-68
2023/01/18 10:14:18;;;;;;;44.22;20.55;;;1.60;99.90;;;;;;5031986;28;20041;-68
2023/01/18 10:16:52;;;;;;;33.72;21.35;;;1.70;99.90;;;;;;5034971;28;20021;-68
2023/01/18 10:19:23;;;;;;;39.60;20.70;;;1.70;99.90;;;;;;5039570;28;20464;-68
2023/01/18 10:22:02;;;;;;;37.05;17.90;;;1.80;99.90;;;;;;5039598;28;20044;-68
2023/01/18 10:24:30;;;;;;;34.53;19.33;;;1.70;99.90;;;;;;5038903;28;20110;-68
2023/01/18 10:27:09;;;;;;;32.85;18.63;;;1.80;99.90;;;;;;5033864;28;20047;-68
2023/01/18 10:29:41;;;;;;;34.95;18.58;;;1.90;99.90;;;;;;5036687;28;20036;-67
2023/01/18 10:32:19;;;;;;;36.42;19.40;;;1.90;99.90;;;;;;5036606;28;20033;-67
2023/01/18 10:34:49;;;;;;;30.05;17.40;;;2.00;99.90;;;;;;5036255;28;20926;-68
2023/01/18 10:37:26;;;;;;;32.28;18.27;;;2.10;99.90;;;;;;5035803;28;20044;-67
2023/01/18 10:39:56;;;;;;;38.60;19.25;;;2.00;99.90;;;;;;5036818;28;20036;-68
2023/01/18 10:42:39;;;;;;;33.05;18.20;;;2.10;99.90;;;;;;5037141;28;20030;-67
2023/01/18 10:45:20;;;;;;;32.42;18.42;;;2.10;99.90;;;;;;5036629;28;20528;-67
2023/01/18 10:47:47;;;;;;;27.13;16.15;;;2.20;99.90;;;;;;5035136;28;20565;-68
2023/01/18 10:50:21;;;;;;;33.70;17.95;;;2.30;99.90;;;;;;5035787;28;20048;-68
2023/01/18 10:52:48;;;;;;;46.20;20.10;;;2.30;99.90;;;;;;5034174;28;20523;-67
2023/01/18 10:55:16;;;;;;;30.38;16.67;;;2.50;99.90;;;;;;5036068;28;20483;-67
2023/01/18 10:57:46;;;;;;;29.63;17.55;;;2.50;99.90;;;;;;5039509;28;20082;-69
2023/01/18 11:00:34;;;;;;;27.98;16.65;;;2.50;99.90;;;;;;5037916;28;20053;-67
2023/01/18 11:03:03;;;;;;;28.25;14.85;;;2.60;99.90;;;;;;5040158;28;20033;-68
2023/01/18 11:05:31;;;;;;;30.35;16.23;;;2.60;99.90;;;;;;5036741;28;20484;-67
2023/01/18 11:08:18;;;;;;;28.75;16.25;;;2.70;99.90;;;;;;5031202;28;20060;-68
2023/01/18 11:10:44;;;;;;;24.88;16.00;;;2.60;99.90;;;;;;5032718;28;20104;-68
2023/01/18 11:13:23;;;;;;;24.40;15.00;;;2.70;99.90;;;;;;5036319;28;20029;-68
2023/01/18 11:16:11;;;;;;;27.67;15.00;;;2.70;99.90;;;;;;5036728;28;20037;-68
2023/01/18 11:18:52;;;;;;;26.83;15.00;;;2.70;99.90;;;;;;5039241;28;20527;-67
2023/01/18 11:21:18;;;;;;;29.73;17.98;;;2.80;99.90;;;;;;5036646;28;20433;-68
2023/01/18 11:23:43;;;;;;;31.60;16.70;;;2.90;99.90;;;;;;5035692;28;20022;-68
2023/01/18 11:26:18;;;;;;;28.35;15.25;;;2.90;99.90;;;;;;5036877;28;20604;-68
2023/01/18 11:28:52;;;;;;;24.90;16.17;;;2.80;99.90;;;;;;5035621;28;20056;-67
2023/01/18 11:31:26;;;;;;;25.55;15.82;;;2.90;99.90;;;;;;5033426;28;20033;-68
2023/01/18 11:33:56;;;;;;;25.38;14.80;;;3.00;99.90;;;;;;5036097;28;20029;-68
2023/01/18 11:36:42;;;;;;;28.35;15.77;;;3.10;99.90;;;;;;5036039;28;20033;-72
2023/01/18 11:39:23;;;;;;;24.48;15.05;;;3.10;99.90;;;;;;5035986;28;20025;-67
2023/01/18 11:42:08;;;;;;;23.88;14.48;;;3.10;99.90;;;;;;5035191;28;20369;-67
2023/01/18 11:44:36;;;;;;;24.27;13.23;;;3.10;99.90;;;;;;5032139;28;20061;-68
2023/01/18 11:47:04;;;;;;;22.20;12.82;;;3.20;99.90;;;;;;5032659;28;20465;-67
2023/01/18 11:49:44;;;;;;;26.40;13.27;;;3.20;99.90;;;;;;5034961;28;20098;-67
2023/01/18 11:52:33;;;;;;;28.33;13.10;;;3.30;99.90;;;;;;5032807;28;20527;-67
2023/01/18 11:55:05;;;;;;;21.98;13.20;;;3.30;99.90;;;;;;5035090;28;20078;-68
2023/01/18 11:57:31;;;;;;;24.60;15.10;;;3.40;99.90;;;;;;5035567;28;20024;-68
2023/01/18 11:59:58;;;;;;;23.92;13.10;;;3.40;99.90;;;;;;5034614;28;20087;-68
2023/01/18 12:02:44;;;;;;;21.17;13.77;;;3.40;99.90;;;;;;5037363;28;20501;-68
2023/01/18 12:05:40;;;;;;;23.77;14.10;;;3.50;99.90;;;;;;5035128;28;20033;-68
2023/01/18 12:08:21;;;;;;;28.08;14.40;;;3.50;99.90;;;;;;5031906;28;20052;-68
2023/01/18 12:11:20;;;;;;;24.38;13.55;;;3.50;99.90;;;;;;5034434;28;20036;-67
2023/01/18 12:13:59;;;;;;;21.10;13.40;;;3.60;99.90;;;;;;5037090;28;20427;-69
2023/01/18 12:16:41;;;;;;;19.48;12.88;;;3.60;99.90;;;;;;5039014;28;20029;-68
2023/01/18 12:19:25;;;;;;;25.65;13.13;;;3.70;99.90;;;;;;5040744;28;20041;-68
2023/01/18 12:22:25;;;;;;;19.95;11.52;;;3.80;99.90;;;;;;5036584;28;20512;-68
2023/01/18 12:25:39;;;;;;;21.65;11.48;;;3.70;99.90;;;;;;5035349;28;20052;-68
2023/01/18 12:28:21;;;;;;;18.77;10.75;;;3.80;99.90;;;;;;5032827;28;20029;-67
2023/01/18 12:31:12;;;;;;;22.60;11.00;;;3.90;99.90;;;;;;5034470;28;20070;-68
2023/01/18 12:33:57;;;;;;;18.58;10.55;;;3.90;99.90;;;;;;5037612;28;20080;-68
2023/01/18 12:36:51;;;;;;;19.60;10.02;;;4.00;99.90;;;;;;5036979;28;20374;-68
2023/01/18 12:39:43;;;;;;;17.00;9.18;;;4.00;99.90;;;;;;5034629;28;20030;-68
2023/01/18 12:42:36;;;;;;;16.65;9.80;;;4.10;99.90;;;;;;5035774;28;20041;-68
2023/01/18 12:45:07;;;;;;;11.20;7.20;;;4.00;99.90;;;;;;5033398;28;20635;-68
2023/01/18 12:47:39;;;;;;;18.60;7.60;;;4.10;99.90;;;;;;5036947;28;20481;-68
2023/01/18 12:50:27;;;;;;;14.85;7.22;;;4.10;99.90;;;;;;5033997;28;20475;-69
2023/01/18 12:53:24;;;;;;;13.02;6.18;;;4.10;99.90;;;;;;5035009;28;20091;-68
2023/01/18 12:55:53;;;;;;;13.95;5.63;;;3.90;99.90;;;;;;5029089;28;20103;-68
2023/01/18 12:58:23;;;;;;;12.07;5.18;;;3.90;99.90;;;;;;5033432;28;20358;-69
2023/01/18 13:01:03;;;;;;;11.02;5.10;;;4.00;99.90;;;;;;5035597;28;20037;-69
2023/01/18 13:03:36;;;;;;;13.65;5.28;;;4.10;99.90;;;;;;5036259;28;20111;-69
2023/01/18 13:06:02;;;;;;;11.60;6.28;;;4.00;99.90;;;;;;5037509;28;20489;-68
2023/01/18 13:08:48;;;;;;;9.48;5.97;;;4.10;99.90;;;;;;5035719;28;20021;-67
2023/01/18 13:11:19;;;;;;;12.38;5.60;;;4.10;99.90;;;;;;5035855;28;20020;-68
2023/01/18 13:13:48;;;;;;;10.70;4.55;;;4.10;99.90;;;;;;5035681;28;20029;-68
2023/01/18 13:16:13;;;;;;;13.85;6.03;;;4.10;99.90;;;;;;5035215;28;20041;-68
2023/01/18 13:18:54;;;;;;;14.10;5.00;;;4.10;99.90;;;;;;5036731;28;20033;-69
2023/01/18 13:21:41;;;;;;;9.85;4.38;;;4.10;99.90;;;;;;5039538;28;20033;-69
2023/01/18 13:24:16;;;;;;;8.18;4.28;;;4.20;99.90;;;;;;5033393;28;20021;-68
2023/01/18 13:26:42;;;;;;;9.57;4.18;;;4.10;99.90;;;;;;5033346;28;20029;-68
2023/01/18 13:29:28;;;;;;;9.20;3.85;;;4.10;99.90;;;;;;5034473;28;20028;-69
2023/01/18 13:31:55;;;;;;;6.72;3.95;;;4.20;99.90;;;;;;5036563;28;20048;-67